FDB5VH VQPR-VNKT
Flight info
| Callsign | FDB5VH |
|---|---|
| Flight time | 0h 48m |
| Altitude | 32000 |
| Route | PRO G348 KIMTI KMTI2R |
| Aircraft | B738/M-SDE2E3FGHIRWXY/LB1 |
Departure
| Time | 2026-04-30 00:27 |
|---|---|
| Airport | Paro International Airport (VQPR) |
Arrival
| Time | 2026-04-30 01:16 |
|---|---|
| Airport | Tribhuvan International Airport (VNKT) |
| Time | Latitude | Longitude | Altitude | Speed | Heading |
|---|---|---|---|---|---|
| 2026-04-30 00:08 | 27.40531 | 89.42165 | 7416 ft | 0 kts | 240° |
| 2026-04-30 00:19 | 27.40533 | 89.42170 | 7416 ft | 2 kts | 240° |
| 2026-04-30 00:20 | 27.40541 | 89.42184 | 7416 ft | 2 kts | 240° |
| 2026-04-30 00:20 | 27.40549 | 89.42200 | 7416 ft | 2 kts | 240° |
| 2026-04-30 00:20 | 27.40550 | 89.42216 | 7416 ft | 2 kts | 292° |
| 2026-04-30 00:20 | 27.40543 | 89.42226 | 7416 ft | 0 kts | 326° |
| 2026-04-30 00:21 | 27.40537 | 89.42230 | 7415 ft | 1 kts | 331° |
| 2026-04-30 00:21 | 27.40536 | 89.42231 | 7415 ft | 0 kts | 330° |
| 2026-04-30 00:23 | 27.40543 | 89.42226 | 7414 ft | 3 kts | 330° |
| 2026-04-30 00:23 | 27.40571 | 89.42220 | 7415 ft | 3 kts | 18° |
| 2026-04-30 00:23 | 27.40586 | 89.42239 | 7415 ft | 4 kts | 57° |
| 2026-04-30 00:23 | 27.40623 | 89.42273 | 7414 ft | 8 kts | 1° |
| 2026-04-30 00:24 | 27.40702 | 89.42232 | 7414 ft | 17 kts | 329° |
| 2026-04-30 00:24 | 27.40818 | 89.42158 | 7415 ft | 19 kts | 330° |
| 2026-04-30 00:24 | 27.40929 | 89.42087 | 7417 ft | 16 kts | 330° |
| 2026-04-30 00:24 | 27.41014 | 89.42033 | 7420 ft | 12 kts | 330° |
| 2026-04-30 00:25 | 27.41079 | 89.41993 | 7422 ft | 11 kts | 331° |
| 2026-04-30 00:25 | 27.41149 | 89.41943 | 7423 ft | 10 kts | 315° |
| 2026-04-30 00:25 | 27.41190 | 89.41891 | 7424 ft | 6 kts | 346° |
| 2026-04-30 00:25 | 27.41204 | 89.41911 | 7424 ft | 3 kts | 126° |
| 2026-04-30 00:26 | 27.41195 | 89.41917 | 7424 ft | 0 kts | 150° |
| 2026-04-30 00:27 | 27.41098 | 89.41979 | 7422 ft | 47 kts | 151° |
| 2026-04-30 00:27 | 27.40608 | 89.42289 | 7413 ft | 111 kts | 150° |
| 2026-04-30 00:27 | 27.39767 | 89.42828 | 7389 ft | 163 kts | 150° |
| 2026-04-30 00:27 | 27.38803 | 89.43439 | 8025 ft | 156 kts | 149° |
| 2026-04-30 00:28 | 27.37906 | 89.44151 | 8512 ft | 163 kts | 139° |
| 2026-04-30 00:28 | 27.37099 | 89.45068 | 9025 ft | 166 kts | 133° |
| 2026-04-30 00:28 | 27.36371 | 89.45998 | 9552 ft | 161 kts | 131° |
| 2026-04-30 00:28 | 27.35611 | 89.46983 | 9905 ft | 168 kts | 131° |
| 2026-04-30 00:29 | 27.34835 | 89.47955 | 10252 ft | 176 kts | 133° |
| 2026-04-30 00:29 | 27.33890 | 89.48954 | 10479 ft | 192 kts | 140° |
| 2026-04-30 00:29 | 27.33009 | 89.50133 | 10865 ft | 201 kts | 121° |
| 2026-04-30 00:29 | 27.32331 | 89.51517 | 11324 ft | 207 kts | 120° |
| 2026-04-30 00:30 | 27.31406 | 89.52750 | 11859 ft | 204 kts | 146° |
| 2026-04-30 00:30 | 27.30101 | 89.53430 | 12102 ft | 223 kts | 163° |
| 2026-04-30 00:30 | 27.28492 | 89.53609 | 12225 ft | 246 kts | 188° |
| 2026-04-30 00:30 | 27.26996 | 89.52621 | 12657 ft | 255 kts | 233° |
| 2026-04-30 00:31 | 27.26229 | 89.50839 | 13229 ft | 265 kts | 253° |
| 2026-04-30 00:31 | 27.26057 | 89.48748 | 13760 ft | 274 kts | 272° |
| 2026-04-30 00:31 | 27.26127 | 89.46521 | 13909 ft | 302 kts | 269° |
| 2026-04-30 00:31 | 27.26096 | 89.44042 | 13855 ft | 336 kts | 264° |
| 2026-04-30 00:32 | 27.25731 | 89.41435 | 14386 ft | 344 kts | 252° |
| 2026-04-30 00:32 | 27.24848 | 89.39115 | 16036 ft | 306 kts | 237° |
| 2026-04-30 00:32 | 27.23842 | 89.37320 | 17552 ft | 273 kts | 234° |
| 2026-04-30 00:32 | 27.22719 | 89.35510 | 17693 ft | 294 kts | 231° |
| 2026-04-30 00:33 | 27.21512 | 89.33638 | 18298 ft | 295 kts | 236° |
| 2026-04-30 00:33 | 27.20513 | 89.31677 | 19143 ft | 287 kts | 241° |
| 2026-04-30 00:33 | 27.19606 | 89.29681 | 19771 ft | 287 kts | 242° |
| 2026-04-30 00:33 | 27.18854 | 89.27645 | 20226 ft | 290 kts | 251° |
| 2026-04-30 00:34 | 27.18452 | 89.25374 | 20359 ft | 309 kts | 264° |
| 2026-04-30 00:34 | 27.18520 | 89.22886 | 20542 ft | 326 kts | 274° |
| 2026-04-30 00:34 | 27.18827 | 89.20300 | 20816 ft | 339 kts | 276° |
| 2026-04-30 00:34 | 27.19149 | 89.17641 | 21064 ft | 352 kts | 275° |
| 2026-04-30 00:35 | 27.19438 | 89.14871 | 21284 ft | 366 kts | 274° |
| 2026-04-30 00:35 | 27.19698 | 89.11977 | 21539 ft | 378 kts | 274° |
| 2026-04-30 00:35 | 27.19940 | 89.08980 | 21733 ft | 392 kts | 273° |
| 2026-04-30 00:35 | 27.20171 | 89.05892 | 21923 ft | 405 kts | 272° |
| 2026-04-30 00:36 | 27.20395 | 89.02680 | 22085 ft | 419 kts | 273° |
| 2026-04-30 00:36 | 27.20618 | 88.99369 | 22226 ft | 432 kts | 272° |
| 2026-04-30 00:36 | 27.20848 | 88.95956 | 22345 ft | 445 kts | 272° |
| 2026-04-30 00:36 | 27.21083 | 88.92468 | 22736 ft | 451 kts | 273° |
| 2026-04-30 00:37 | 27.21317 | 88.88993 | 23267 ft | 453 kts | 272° |
| 2026-04-30 00:37 | 27.21554 | 88.85478 | 23818 ft | 455 kts | 272° |
| 2026-04-30 00:37 | 27.21792 | 88.81924 | 24280 ft | 459 kts | 272° |
| 2026-04-30 00:37 | 27.22032 | 88.78324 | 24803 ft | 461 kts | 272° |
| 2026-04-30 00:38 | 27.22270 | 88.74708 | 25215 ft | 466 kts | 273° |
| 2026-04-30 00:38 | 27.22510 | 88.71069 | 25611 ft | 470 kts | 272° |
| 2026-04-30 00:38 | 27.22755 | 88.67368 | 26086 ft | 472 kts | 272° |
| 2026-04-30 00:38 | 27.22992 | 88.63720 | 26608 ft | 473 kts | 272° |
| 2026-04-30 00:39 | 27.23236 | 88.59994 | 27093 ft | 475 kts | 273° |
| 2026-04-30 00:39 | 27.23492 | 88.56261 | 27557 ft | 477 kts | 273° |
| 2026-04-30 00:39 | 27.23744 | 88.52560 | 28159 ft | 475 kts | 272° |
| 2026-04-30 00:39 | 27.23981 | 88.48867 | 28891 ft | 470 kts | 271° |
| 2026-04-30 00:40 | 27.24205 | 88.45230 | 29819 ft | 460 kts | 271° |
| 2026-04-30 00:40 | 27.24422 | 88.41720 | 30704 ft | 452 kts | 271° |
| 2026-04-30 00:40 | 27.24638 | 88.38220 | 31238 ft | 451 kts | 271° |
| 2026-04-30 00:40 | 27.24856 | 88.34647 | 31428 ft | 458 kts | 270° |
| 2026-04-30 00:41 | 27.25072 | 88.31106 | 31815 ft | 460 kts | 270° |
| 2026-04-30 00:41 | 27.25296 | 88.27499 | 32184 ft | 461 kts | 270° |
| 2026-04-30 00:41 | 27.25522 | 88.23904 | 32203 ft | 461 kts | 270° |
| 2026-04-30 00:42 | 27.25964 | 88.16843 | 32223 ft | 452 kts | 270° |
| 2026-04-30 00:42 | 27.26397 | 88.09768 | 32326 ft | 453 kts | 270° |
| 2026-04-30 00:43 | 27.26821 | 88.02748 | 32404 ft | 452 kts | 269° |
| 2026-04-30 00:43 | 27.27248 | 87.95681 | 32364 ft | 454 kts | 269° |
| 2026-04-30 00:44 | 27.27673 | 87.88560 | 32352 ft | 455 kts | 270° |
| 2026-04-30 00:44 | 27.28097 | 87.81471 | 32295 ft | 453 kts | 269° |
| 2026-04-30 00:45 | 27.28518 | 87.74403 | 32257 ft | 454 kts | 269° |
| 2026-04-30 00:45 | 27.28919 | 87.67576 | 32252 ft | 454 kts | 269° |
| 2026-04-30 00:46 | 27.29331 | 87.60539 | 32287 ft | 453 kts | 270° |
| 2026-04-30 00:46 | 27.29745 | 87.53425 | 32365 ft | 453 kts | 269° |
| 2026-04-30 00:47 | 27.30151 | 87.46393 | 32394 ft | 454 kts | 270° |
| 2026-04-30 00:47 | 27.30552 | 87.39317 | 32304 ft | 453 kts | 269° |
| 2026-04-30 00:48 | 27.30949 | 87.32241 | 32322 ft | 454 kts | 269° |
| 2026-04-30 00:48 | 27.31340 | 87.25158 | 32269 ft | 455 kts | 269° |
| 2026-04-30 00:49 | 27.31934 | 87.18082 | 32245 ft | 457 kts | 274° |
| 2026-04-30 00:49 | 27.33156 | 87.11060 | 32278 ft | 459 kts | 278° |
| 2026-04-30 00:50 | 27.34583 | 87.04060 | 32353 ft | 459 kts | 278° |
| 2026-04-30 00:50 | 27.36017 | 86.97085 | 32357 ft | 460 kts | 278° |
| 2026-04-30 00:51 | 27.37429 | 86.90075 | 32357 ft | 460 kts | 278° |
| 2026-04-30 00:51 | 27.38816 | 86.83080 | 32287 ft | 461 kts | 278° |
| 2026-04-30 00:52 | 27.40197 | 86.76036 | 32362 ft | 461 kts | 278° |
| 2026-04-30 00:52 | 27.41564 | 86.69016 | 32395 ft | 461 kts | 278° |
| 2026-04-30 00:53 | 27.42922 | 86.62015 | 32422 ft | 460 kts | 278° |
| 2026-04-30 00:53 | 27.44280 | 86.54993 | 32406 ft | 460 kts | 278° |
| 2026-04-30 00:54 | 27.45633 | 86.47981 | 32437 ft | 460 kts | 278° |
| 2026-04-30 00:54 | 27.46920 | 86.40992 | 32778 ft | 457 kts | 276° |
| 2026-04-30 00:55 | 27.48005 | 86.33882 | 32498 ft | 460 kts | 275° |
| 2026-04-30 00:55 | 27.48395 | 86.30363 | 32390 ft | 449 kts | 268° |
| 2026-04-30 00:55 | 27.47244 | 86.23580 | 32333 ft | 441 kts | 243° |
| 2026-04-30 00:56 | 27.44219 | 86.17630 | 32273 ft | 436 kts | 234° |
| 2026-04-30 00:56 | 27.40861 | 86.11981 | 32225 ft | 436 kts | 233° |
| 2026-04-30 00:57 | 27.37426 | 86.06306 | 32170 ft | 437 kts | 233° |
| 2026-04-30 00:57 | 27.34034 | 86.00706 | 32174 ft | 437 kts | 233° |
| 2026-04-30 00:58 | 27.30598 | 85.95023 | 32090 ft | 439 kts | 233° |
| 2026-04-30 00:58 | 27.27170 | 85.89348 | 31896 ft | 434 kts | 233° |
| 2026-04-30 00:59 | 27.25490 | 85.86565 | 31456 ft | 429 kts | 233° |
| 2026-04-30 00:59 | 27.23831 | 85.83817 | 30823 ft | 431 kts | 234° |
| 2026-04-30 00:59 | 27.22134 | 85.81007 | 30022 ft | 433 kts | 233° |
| 2026-04-30 00:59 | 27.20462 | 85.78242 | 29189 ft | 436 kts | 234° |
| 2026-04-30 01:00 | 27.18763 | 85.75433 | 28311 ft | 439 kts | 234° |
| 2026-04-30 01:00 | 27.17037 | 85.72584 | 27387 ft | 443 kts | 234° |
| 2026-04-30 01:00 | 27.15305 | 85.69727 | 26428 ft | 447 kts | 235° |
| 2026-04-30 01:00 | 27.13647 | 85.66782 | 25456 ft | 451 kts | 240° |
| 2026-04-30 01:01 | 27.12389 | 85.63530 | 24721 ft | 450 kts | 252° |
| 2026-04-30 01:01 | 27.11802 | 85.60127 | 24097 ft | 446 kts | 264° |
| 2026-04-30 01:01 | 27.11698 | 85.56679 | 23388 ft | 444 kts | 269° |
| 2026-04-30 01:01 | 27.11695 | 85.53254 | 22684 ft | 441 kts | 270° |
| 2026-04-30 01:02 | 27.11710 | 85.49828 | 21988 ft | 438 kts | 270° |
| 2026-04-30 01:02 | 27.11728 | 85.46423 | 21296 ft | 435 kts | 270° |
| 2026-04-30 01:02 | 27.11743 | 85.43070 | 20591 ft | 433 kts | 270° |
| 2026-04-30 01:02 | 27.11754 | 85.39728 | 20055 ft | 425 kts | 270° |
| 2026-04-30 01:03 | 27.11760 | 85.36462 | 19765 ft | 412 kts | 270° |
| 2026-04-30 01:03 | 27.11763 | 85.33321 | 19574 ft | 397 kts | 270° |
| 2026-04-30 01:03 | 27.11837 | 85.30286 | 19175 ft | 389 kts | 275° |
| 2026-04-30 01:03 | 27.12291 | 85.27291 | 18547 ft | 387 kts | 287° |
| 2026-04-30 01:04 | 27.13361 | 85.24589 | 17990 ft | 383 kts | 300° |
| 2026-04-30 01:04 | 27.14953 | 85.22201 | 17447 ft | 373 kts | 309° |
| 2026-04-30 01:04 | 27.16728 | 85.20180 | 16951 ft | 365 kts | 316° |
| 2026-04-30 01:04 | 27.18805 | 85.18540 | 16459 ft | 358 kts | 329° |
| 2026-04-30 01:05 | 27.21111 | 85.17532 | 15968 ft | 356 kts | 341° |
| 2026-04-30 01:05 | 27.23518 | 85.17025 | 15477 ft | 352 kts | 348° |
| 2026-04-30 01:05 | 27.25952 | 85.16860 | 14976 ft | 350 kts | 356° |
| 2026-04-30 01:05 | 27.28347 | 85.17255 | 14630 ft | 346 kts | 10° |
| 2026-04-30 01:06 | 27.30576 | 85.18131 | 14509 ft | 335 kts | 16° |
| 2026-04-30 01:06 | 27.32738 | 85.19118 | 14160 ft | 331 kts | 17° |
| 2026-04-30 01:06 | 27.34882 | 85.20083 | 13666 ft | 331 kts | 14° |
| 2026-04-30 01:06 | 27.37059 | 85.20763 | 13246 ft | 324 kts | 4° |
| 2026-04-30 01:07 | 27.39299 | 85.20958 | 12829 ft | 318 kts | 355° |
| 2026-04-30 01:07 | 27.41477 | 85.20935 | 12450 ft | 315 kts | 354° |
| 2026-04-30 01:07 | 27.43699 | 85.20894 | 12014 ft | 315 kts | 355° |
| 2026-04-30 01:07 | 27.45868 | 85.20968 | 11633 ft | 315 kts | 2° |
| 2026-04-30 01:08 | 27.48038 | 85.21440 | 11238 ft | 317 kts | 12° |
| 2026-04-30 01:08 | 27.50142 | 85.22146 | 10838 ft | 317 kts | 14° |
| 2026-04-30 01:08 | 27.52255 | 85.22897 | 10429 ft | 317 kts | 15° |
| 2026-04-30 01:08 | 27.54300 | 85.23855 | 10045 ft | 318 kts | 27° |
| 2026-04-30 01:09 | 27.56116 | 85.25195 | 9846 ft | 311 kts | 38° |
| 2026-04-30 01:09 | 27.57718 | 85.26836 | 9450 ft | 309 kts | 49° |
| 2026-04-30 01:09 | 27.58976 | 85.28774 | 9066 ft | 306 kts | 62° |
| 2026-04-30 01:09 | 27.59867 | 85.30900 | 8724 ft | 298 kts | 69° |
| 2026-04-30 01:10 | 27.60589 | 85.33044 | 8601 ft | 283 kts | 72° |
| 2026-04-30 01:10 | 27.61230 | 85.35066 | 8525 ft | 268 kts | 72° |
| 2026-04-30 01:10 | 27.61844 | 85.37000 | 8446 ft | 254 kts | 72° |
| 2026-04-30 01:10 | 27.62471 | 85.38811 | 8321 ft | 242 kts | 66° |
| 2026-04-30 01:11 | 27.63337 | 85.40381 | 8258 ft | 229 kts | 50° |
| 2026-04-30 01:11 | 27.64403 | 85.41623 | 8208 ft | 210 kts | 47° |
| 2026-04-30 01:11 | 27.65376 | 85.42744 | 8141 ft | 194 kts | 49° |
| 2026-04-30 01:11 | 27.66306 | 85.43870 | 8087 ft | 197 kts | 49° |
| 2026-04-30 01:12 | 27.67237 | 85.45010 | 8025 ft | 197 kts | 49° |
| 2026-04-30 01:12 | 27.68199 | 85.46139 | 7928 ft | 198 kts | 44° |
| 2026-04-30 01:12 | 27.69356 | 85.46993 | 7554 ft | 206 kts | 21° |
| 2026-04-30 01:12 | 27.70781 | 85.47188 | 7186 ft | 206 kts | 355° |
| 2026-04-30 01:13 | 27.72153 | 85.46901 | 6911 ft | 196 kts | 345° |
| 2026-04-30 01:13 | 27.73365 | 85.46253 | 6651 ft | 188 kts | 322° |
| 2026-04-30 01:13 | 27.74188 | 85.45189 | 6414 ft | 178 kts | 303° |
| 2026-04-30 01:13 | 27.74757 | 85.43947 | 6160 ft | 177 kts | 291° |
| 2026-04-30 01:14 | 27.74989 | 85.42612 | 5907 ft | 176 kts | 266° |
| 2026-04-30 01:14 | 27.74638 | 85.41309 | 5684 ft | 171 kts | 248° |
| 2026-04-30 01:14 | 27.74211 | 85.40059 | 5466 ft | 173 kts | 245° |
| 2026-04-30 01:14 | 27.73648 | 85.38885 | 5235 ft | 168 kts | 236° |
| 2026-04-30 01:15 | 27.72951 | 85.37809 | 4966 ft | 169 kts | 232° |
| 2026-04-30 01:15 | 27.72077 | 85.36964 | 4777 ft | 165 kts | 205° |
| 2026-04-30 01:15 | 27.70977 | 85.36522 | 4515 ft | 170 kts | 202° |
| 2026-04-30 01:15 | 27.69945 | 85.36046 | 4443 ft | 128 kts | 202° |
| 2026-04-30 01:16 | 27.69368 | 85.35783 | 4412 ft | 66 kts | 201° |
| 2026-04-30 01:16 | 27.69071 | 85.35648 | 4391 ft | 16 kts | 204° |
| 2026-04-30 01:16 | 27.69070 | 85.35588 | 4389 ft | 10 kts | 307° |
| 2026-04-30 01:16 | 27.69139 | 85.35561 | 4390 ft | 12 kts | 17° |
| 2026-04-30 01:17 | 27.69239 | 85.35606 | 4396 ft | 18 kts | 23° |
| 2026-04-30 01:17 | 27.69374 | 85.35667 | 4407 ft | 23 kts | 22° |
| 2026-04-30 01:17 | 27.69536 | 85.35741 | 4418 ft | 27 kts | 21° |
| 2026-04-30 01:17 | 27.69698 | 85.35815 | 4431 ft | 21 kts | 21° |
| 2026-04-30 01:18 | 27.69781 | 85.35843 | 4437 ft | 6 kts | 340° |
| 2026-04-30 01:18 | 27.69805 | 85.35809 | 4438 ft | 6 kts | 291° |
| 2026-04-30 01:18 | 27.69819 | 85.35770 | 4436 ft | 1 kts | 292° |
| 2026-04-30 01:18 | 27.69821 | 85.35764 | 4436 ft | 0 kts | 292° |